sensor_id;sensor_type;location;lat;lon;timestamp;P1;durP1;ratioP1;P2;durP2;ratioP2
42978;SDS011;28616;44.746;19.678;2023-08-07T00:00:46;9.75;;;4.90;;
42978;SDS011;28616;44.746;19.678;2023-08-07T00:03:12;9.60;;;5.25;;
42978;SDS011;28616;44.746;19.678;2023-08-07T00:05:44;7.40;;;4.10;;
42978;SDS011;28616;44.746;19.678;2023-08-07T00:08:11;13.55;;;4.43;;
42978;SDS011;28616;44.746;19.678;2023-08-07T00:10:37;8.55;;;3.92;;
42978;SDS011;28616;44.746;19.678;2023-08-07T00:13:03;7.05;;;3.50;;
42978;SDS011;28616;44.746;19.678;2023-08-07T00:15:28;8.23;;;3.17;;
42978;SDS011;28616;44.746;19.678;2023-08-07T00:17:54;8.45;;;3.30;;
42978;SDS011;28616;44.746;19.678;2023-08-07T00:20:20;13.70;;;3.10;;
42978;SDS011;28616;44.746;19.678;2023-08-07T00:22:46;5.53;;;3.05;;
42978;SDS011;28616;44.746;19.678;2023-08-07T00:25:12;5.90;;;3.13;;
42978;SDS011;28616;44.746;19.678;2023-08-07T00:27:38;10.90;;;3.28;;
42978;SDS011;28616;44.746;19.678;2023-08-07T00:30:03;5.90;;;3.30;;
42978;SDS011;28616;44.746;19.678;2023-08-07T00:32:30;5.78;;;3.05;;
42978;SDS011;28616;44.746;19.678;2023-08-07T00:34:55;9.43;;;3.08;;
42978;SDS011;28616;44.746;19.678;2023-08-07T00:37:21;7.13;;;3.65;;
42978;SDS011;28616;44.746;19.678;2023-08-07T00:39:47;7.95;;;3.50;;
42978;SDS011;28616;44.746;19.678;2023-08-07T00:42:13;4.95;;;2.97;;
42978;SDS011;28616;44.746;19.678;2023-08-07T00:44:38;8.50;;;3.45;;
42978;SDS011;28616;44.746;19.678;2023-08-07T00:47:05;4.63;;;2.97;;
42978;SDS011;28616;44.746;19.678;2023-08-07T00:49:31;11.45;;;3.30;;
42978;SDS011;28616;44.746;19.678;2023-08-07T00:51:57;5.00;;;3.13;;
42978;SDS011;28616;44.746;19.678;2023-08-07T00:54:23;11.27;;;3.75;;
42978;SDS011;28616;44.746;19.678;2023-08-07T00:56:50;6.53;;;3.53;;
42978;SDS011;28616;44.746;19.678;2023-08-07T00:59:16;6.80;;;3.17;;
42978;SDS011;28616;44.746;19.678;2023-08-07T01:01:43;7.35;;;2.80;;
42978;SDS011;28616;44.746;19.678;2023-08-07T01:04:08;5.30;;;3.05;;
42978;SDS011;28616;44.746;19.678;2023-08-07T01:06:34;10.60;;;3.58;;
42978;SDS011;28616;44.746;19.678;2023-08-07T01:09:00;6.07;;;3.70;;
42978;SDS011;28616;44.746;19.678;2023-08-07T01:14:35;10.50;;;3.60;;
42978;SDS011;28616;44.746;19.678;2023-08-07T01:17:09;11.93;;;2.97;;
42978;SDS011;28616;44.746;19.678;2023-08-07T01:19:38;8.27;;;3.25;;
42978;SDS011;28616;44.746;19.678;2023-08-07T01:24:34;6.07;;;2.65;;
42978;SDS011;28616;44.746;19.678;2023-08-07T01:27:49;5.32;;;2.78;;
42978;SDS011;28616;44.746;19.678;2023-08-07T01:35:23;7.35;;;2.75;;
42978;SDS011;28616;44.746;19.678;2023-08-07T01:37:52;10.93;;;3.08;;
42978;SDS011;28616;44.746;19.678;2023-08-07T01:40:20;6.63;;;2.95;;
42978;SDS011;28616;44.746;19.678;2023-08-07T01:42:47;12.23;;;3.22;;
42978;SDS011;28616;44.746;19.678;2023-08-07T01:45:13;7.13;;;2.80;;
42978;SDS011;28616;44.746;19.678;2023-08-07T01:47:39;9.68;;;3.05;;
42978;SDS011;28616;44.746;19.678;2023-08-07T01:50:05;4.75;;;2.67;;
42978;SDS011;28616;44.746;19.678;2023-08-07T01:52:31;6.07;;;3.00;;
42978;SDS011;28616;44.746;19.678;2023-08-07T01:54:58;8.65;;;2.72;;
42978;SDS011;28616;44.746;19.678;2023-08-07T01:57:23;6.32;;;2.83;;
42978;SDS011;28616;44.746;19.678;2023-08-07T01:59:50;6.18;;;3.40;;
42978;SDS011;28616;44.746;19.678;2023-08-07T02:02:16;13.15;;;3.08;;
42978;SDS011;28616;44.746;19.678;2023-08-07T02:04:42;7.45;;;3.65;;
42978;SDS011;28616;44.746;19.678;2023-08-07T02:07:08;6.65;;;2.75;;
42978;SDS011;28616;44.746;19.678;2023-08-07T02:09:34;6.30;;;2.70;;
42978;SDS011;28616;44.746;19.678;2023-08-07T02:11:59;5.97;;;2.45;;
42978;SDS011;28616;44.746;19.678;2023-08-07T02:14:26;8.20;;;3.30;;
42978;SDS011;28616;44.746;19.678;2023-08-07T02:16:52;8.07;;;3.05;;
42978;SDS011;28616;44.746;19.678;2023-08-07T02:19:18;8.10;;;3.08;;
42978;SDS011;28616;44.746;19.678;2023-08-07T02:21:43;7.93;;;3.42;;
42978;SDS011;28616;44.746;19.678;2023-08-07T02:24:09;6.85;;;2.80;;
42978;SDS011;28616;44.746;19.678;2023-08-07T02:26:35;7.18;;;2.33;;
42978;SDS011;28616;44.746;19.678;2023-08-07T02:29:01;7.10;;;2.63;;
42978;SDS011;28616;44.746;19.678;2023-08-07T02:31:28;7.47;;;3.30;;
42978;SDS011;28616;44.746;19.678;2023-08-07T02:33:53;6.65;;;2.92;;
42978;SDS011;28616;44.746;19.678;2023-08-07T02:36:19;4.68;;;2.60;;
42978;SDS011;28616;44.746;19.678;2023-08-07T02:38:45;8.82;;;2.65;;
42978;SDS011;28616;44.746;19.678;2023-08-07T02:41:10;6.00;;;3.25;;
42978;SDS011;28616;44.746;19.678;2023-08-07T02:43:36;10.25;;;3.40;;
42978;SDS011;28616;44.746;19.678;2023-08-07T02:46:02;8.30;;;3.08;;
42978;SDS011;28616;44.746;19.678;2023-08-07T02:48:28;6.35;;;2.75;;
42978;SDS011;28616;44.746;19.678;2023-08-07T02:50:53;10.65;;;3.03;;
42978;SDS011;28616;44.746;19.678;2023-08-07T02:53:19;15.50;;;4.05;;
42978;SDS011;28616;44.746;19.678;2023-08-07T02:55:45;8.18;;;3.22;;
42978;SDS011;28616;44.746;19.678;2023-08-07T02:58:11;6.40;;;3.25;;
42978;SDS011;28616;44.746;19.678;2023-08-07T03:00:36;6.10;;;2.80;;
42978;SDS011;28616;44.746;19.678;2023-08-07T03:03:02;7.43;;;3.22;;
42978;SDS011;28616;44.746;19.678;2023-08-07T03:05:28;6.70;;;3.00;;
42978;SDS011;28616;44.746;19.678;2023-08-07T03:07:54;10.10;;;2.92;;
42978;SDS011;28616;44.746;19.678;2023-08-07T03:10:20;6.07;;;3.60;;
42978;SDS011;28616;44.746;19.678;2023-08-07T03:12:45;6.95;;;3.15;;
42978;SDS011;28616;44.746;19.678;2023-08-07T03:15:11;9.38;;;3.67;;
42978;SDS011;28616;44.746;19.678;2023-08-07T03:17:37;6.70;;;3.55;;
42978;SDS011;28616;44.746;19.678;2023-08-07T03:20:03;9.25;;;3.08;;
42978;SDS011;28616;44.746;19.678;2023-08-07T03:22:29;5.88;;;3.35;;
42978;SDS011;28616;44.746;19.678;2023-08-07T03:24:55;5.70;;;2.88;;
42978;SDS011;28616;44.746;19.678;2023-08-07T03:27:21;6.25;;;3.15;;
42978;SDS011;28616;44.746;19.678;2023-08-07T03:29:46;7.10;;;2.75;;
42978;SDS011;28616;44.746;19.678;2023-08-07T03:32:12;8.82;;;2.70;;
42978;SDS011;28616;44.746;19.678;2023-08-07T03:34:38;12.45;;;2.83;;
42978;SDS011;28616;44.746;19.678;2023-08-07T03:37:04;10.98;;;2.90;;
42978;SDS011;28616;44.746;19.678;2023-08-07T03:39:29;4.47;;;2.38;;
42978;SDS011;28616;44.746;19.678;2023-08-07T03:41:55;4.65;;;2.50;;
42978;SDS011;28616;44.746;19.678;2023-08-07T03:44:21;12.02;;;3.58;;
42978;SDS011;28616;44.746;19.678;2023-08-07T03:46:47;10.52;;;2.72;;
42978;SDS011;28616;44.746;19.678;2023-08-07T03:49:12;9.15;;;2.33;;
42978;SDS011;28616;44.746;19.678;2023-08-07T03:51:39;5.55;;;2.45;;
42978;SDS011;28616;44.746;19.678;2023-08-07T03:54:04;4.85;;;2.20;;
42978;SDS011;28616;44.746;19.678;2023-08-07T03:56:30;8.35;;;2.80;;
42978;SDS011;28616;44.746;19.678;2023-08-07T03:59:04;6.13;;;2.50;;
42978;SDS011;28616;44.746;19.678;2023-08-07T04:01:30;11.98;;;2.70;;
42978;SDS011;28616;44.746;19.678;2023-08-07T04:03:56;8.73;;;2.80;;
42978;SDS011;28616;44.746;19.678;2023-08-07T04:06:22;7.00;;;2.42;;
42978;SDS011;28616;44.746;19.678;2023-08-07T04:08:47;6.30;;;2.85;;
42978;SDS011;28616;44.746;19.678;2023-08-07T04:11:13;7.20;;;2.60;;
42978;SDS011;28616;44.746;19.678;2023-08-07T04:13:39;9.32;;;3.72;;
42978;SDS011;28616;44.746;19.678;2023-08-07T04:16:05;10.48;;;4.05;;
42978;SDS011;28616;44.746;19.678;2023-08-07T04:18:31;12.35;;;3.40;;
42978;SDS011;28616;44.746;19.678;2023-08-07T04:20:58;6.45;;;2.38;;
42978;SDS011;28616;44.746;19.678;2023-08-07T04:23:24;5.38;;;2.85;;
42978;SDS011;28616;44.746;19.678;2023-08-07T04:25:50;9.70;;;2.65;;
42978;SDS011;28616;44.746;19.678;2023-08-07T04:28:17;9.80;;;2.80;;
42978;SDS011;28616;44.746;19.678;2023-08-07T04:30:43;7.60;;;2.60;;
42978;SDS011;28616;44.746;19.678;2023-08-07T04:33:10;10.10;;;2.85;;
42978;SDS011;28616;44.746;19.678;2023-08-07T04:35:36;7.18;;;2.47;;
42978;SDS011;28616;44.746;19.678;2023-08-07T04:38:02;6.70;;;2.83;;
42978;SDS011;28616;44.746;19.678;2023-08-07T04:40:28;9.23;;;2.83;;
42978;SDS011;28616;44.746;19.678;2023-08-07T04:42:54;8.07;;;2.47;;
42978;SDS011;28616;44.746;19.678;2023-08-07T04:45:21;3.13;;;1.73;;
42978;SDS011;28616;44.746;19.678;2023-08-07T04:47:47;6.75;;;1.63;;
42978;SDS011;28616;44.746;19.678;2023-08-07T04:50:12;4.05;;;2.25;;
42978;SDS011;28616;44.746;19.678;2023-08-07T04:52:38;5.90;;;1.58;;
42978;SDS011;28616;44.746;19.678;2023-08-07T04:55:04;8.93;;;1.73;;
42978;SDS011;28616;44.746;19.678;2023-08-07T04:57:30;7.32;;;1.85;;
42978;SDS011;28616;44.746;19.678;2023-08-07T04:59:56;6.65;;;2.00;;
42978;SDS011;28616;44.746;19.678;2023-08-07T05:02:21;3.65;;;1.73;;
42978;SDS011;28616;44.746;19.678;2023-08-07T05:04:47;5.38;;;2.13;;
42978;SDS011;28616;44.746;19.678;2023-08-07T05:07:13;3.25;;;1.85;;
42978;SDS011;28616;44.746;19.678;2023-08-07T05:09:40;4.25;;;1.65;;
42978;SDS011;28616;44.746;19.678;2023-08-07T05:12:06;4.68;;;1.67;;
42978;SDS011;28616;44.746;19.678;2023-08-07T05:14:32;8.27;;;1.98;;
42978;SDS011;28616;44.746;19.678;2023-08-07T05:16:58;4.22;;;1.70;;
42978;SDS011;28616;44.746;19.678;2023-08-07T05:19:25;8.57;;;2.42;;
42978;SDS011;28616;44.746;19.678;2023-08-07T05:21:51;8.82;;;1.88;;
42978;SDS011;28616;44.746;19.678;2023-08-07T05:24:17;9.00;;;3.42;;
42978;SDS011;28616;44.746;19.678;2023-08-07T05:26:43;4.93;;;1.85;;
42978;SDS011;28616;44.746;19.678;2023-08-07T05:29:09;5.22;;;1.65;;
42978;SDS011;28616;44.746;19.678;2023-08-07T05:31:35;15.43;;;1.70;;
42978;SDS011;28616;44.746;19.678;2023-08-07T05:34:01;8.73;;;2.00;;
42978;SDS011;28616;44.746;19.678;2023-08-07T05:36:27;7.95;;;2.08;;
42978;SDS011;28616;44.746;19.678;2023-08-07T05:38:54;2.95;;;1.30;;
42978;SDS011;28616;44.746;19.678;2023-08-07T05:41:20;4.05;;;1.55;;
42978;SDS011;28616;44.746;19.678;2023-08-07T05:43:46;4.85;;;1.50;;
42978;SDS011;28616;44.746;19.678;2023-08-07T05:46:12;3.20;;;1.40;;
42978;SDS011;28616;44.746;19.678;2023-08-07T05:48:37;3.42;;;1.70;;
42978;SDS011;28616;44.746;19.678;2023-08-07T05:51:03;3.72;;;1.52;;
42978;SDS011;28616;44.746;19.678;2023-08-07T05:53:29;5.40;;;1.75;;
42978;SDS011;28616;44.746;19.678;2023-08-07T05:55:55;6.65;;;1.95;;
42978;SDS011;28616;44.746;19.678;2023-08-07T05:58:21;4.90;;;1.70;;
42978;SDS011;28616;44.746;19.678;2023-08-07T06:00:47;7.57;;;2.20;;
42978;SDS011;28616;44.746;19.678;2023-08-07T06:03:13;8.48;;;2.30;;
42978;SDS011;28616;44.746;19.678;2023-08-07T06:05:39;4.38;;;2.05;;
42978;SDS011;28616;44.746;19.678;2023-08-07T06:08:05;8.23;;;1.90;;
42978;SDS011;28616;44.746;19.678;2023-08-07T06:10:30;8.88;;;1.90;;
42978;SDS011;28616;44.746;19.678;2023-08-07T06:12:56;4.60;;;1.73;;
42978;SDS011;28616;44.746;19.678;2023-08-07T06:15:22;7.80;;;3.20;;
42978;SDS011;28616;44.746;19.678;2023-08-07T06:17:48;9.52;;;3.90;;
42978;SDS011;28616;44.746;19.678;2023-08-07T06:20:16;6.57;;;2.58;;
42978;SDS011;28616;44.746;19.678;2023-08-07T06:22:42;3.20;;;1.90;;
42978;SDS011;28616;44.746;19.678;2023-08-07T06:25:08;4.72;;;2.00;;
42978;SDS011;28616;44.746;19.678;2023-08-07T06:27:34;8.45;;;1.88;;
42978;SDS011;28616;44.746;19.678;2023-08-07T06:30:00;7.63;;;1.90;;
42978;SDS011;28616;44.746;19.678;2023-08-07T06:32:26;3.30;;;1.80;;
42978;SDS011;28616;44.746;19.678;2023-08-07T06:34:52;6.07;;;1.40;;
42978;SDS011;28616;44.746;19.678;2023-08-07T06:37:19;3.53;;;1.42;;
42978;SDS011;28616;44.746;19.678;2023-08-07T06:39:44;16.88;;;1.40;;
42978;SDS011;28616;44.746;19.678;2023-08-07T06:42:11;2.92;;;1.52;;
42978;SDS011;28616;44.746;19.678;2023-08-07T06:44:37;6.15;;;1.80;;
42978;SDS011;28616;44.746;19.678;2023-08-07T06:47:03;2.88;;;1.10;;
42978;SDS011;28616;44.746;19.678;2023-08-07T06:49:29;8.63;;;1.52;;
42978;SDS011;28616;44.746;19.678;2023-08-07T06:51:57;2.78;;;1.50;;
42978;SDS011;28616;44.746;19.678;2023-08-07T06:54:23;3.50;;;1.60;;
42978;SDS011;28616;44.746;19.678;2023-08-07T06:56:49;6.53;;;1.75;;
42978;SDS011;28616;44.746;19.678;2023-08-07T06:59:14;4.45;;;1.52;;
42978;SDS011;28616;44.746;19.678;2023-08-07T07:01:40;2.70;;;1.35;;
42978;SDS011;28616;44.746;19.678;2023-08-07T07:04:06;4.82;;;2.10;;
42978;SDS011;28616;44.746;19.678;2023-08-07T07:06:33;3.15;;;1.27;;
42978;SDS011;28616;44.746;19.678;2023-08-07T07:08:59;2.83;;;1.42;;
42978;SDS011;28616;44.746;19.678;2023-08-07T07:11:25;3.92;;;0.70;;
42978;SDS011;28616;44.746;19.678;2023-08-07T07:13:51;2.33;;;1.00;;
42978;SDS011;28616;44.746;19.678;2023-08-07T07:16:20;2.17;;;1.00;;
42978;SDS011;28616;44.746;19.678;2023-08-07T07:21:14;3.28;;;0.63;;
42978;SDS011;28616;44.746;19.678;2023-08-07T07:23:41;7.07;;;1.23;;
42978;SDS011;28616;44.746;19.678;2023-08-07T07:26:06;3.72;;;1.25;;
42978;SDS011;28616;44.746;19.678;2023-08-07T07:28:32;5.75;;;1.10;;
42978;SDS011;28616;44.746;19.678;2023-08-07T07:30:58;2.92;;;1.30;;
42978;SDS011;28616;44.746;19.678;2023-08-07T07:33:24;2.55;;;1.20;;
42978;SDS011;28616;44.746;19.678;2023-08-07T07:35:50;2.15;;;0.77;;
42978;SDS011;28616;44.746;19.678;2023-08-07T07:38:16;9.48;;;1.35;;
42978;SDS011;28616;44.746;19.678;2023-08-07T07:40:43;6.68;;;1.00;;
42978;SDS011;28616;44.746;19.678;2023-08-07T07:43:09;1.70;;;0.90;;
42978;SDS011;28616;44.746;19.678;2023-08-07T07:45:35;7.80;;;0.90;;
42978;SDS011;28616;44.746;19.678;2023-08-07T07:48:04;3.33;;;1.00;;
42978;SDS011;28616;44.746;19.678;2023-08-07T07:50:33;2.67;;;1.00;;
42978;SDS011;28616;44.746;19.678;2023-08-07T07:52:59;3.97;;;1.40;;
42978;SDS011;28616;44.746;19.678;2023-08-07T07:55:25;1.05;;;0.60;;
42978;SDS011;28616;44.746;19.678;2023-08-07T07:57:51;2.60;;;0.75;;
42978;SDS011;28616;44.746;19.678;2023-08-07T08:00:18;2.17;;;0.77;;
42978;SDS011;28616;44.746;19.678;2023-08-07T08:02:44;1.70;;;0.70;;
42978;SDS011;28616;44.746;19.678;2023-08-07T08:05:10;1.75;;;0.77;;
42978;SDS011;28616;44.746;19.678;2023-08-07T08:07:37;3.17;;;0.85;;
42978;SDS011;28616;44.746;19.678;2023-08-07T08:10:05;2.05;;;0.60;;
42978;SDS011;28616;44.746;19.678;2023-08-07T08:12:32;1.85;;;0.65;;
42978;SDS011;28616;44.746;19.678;2023-08-07T08:14:58;1.25;;;0.70;;
42978;SDS011;28616;44.746;19.678;2023-08-07T08:17:24;1.60;;;0.45;;
42978;SDS011;28616;44.746;19.678;2023-08-07T08:19:50;1.00;;;0.50;;
42978;SDS011;28616;44.746;19.678;2023-08-07T08:22:16;1.48;;;0.60;;
42978;SDS011;28616;44.746;19.678;2023-08-07T08:24:42;1.35;;;0.73;;
42978;SDS011;28616;44.746;19.678;2023-08-07T08:27:09;3.35;;;0.65;;
42978;SDS011;28616;44.746;19.678;2023-08-07T08:29:35;2.80;;;0.90;;
42978;SDS011;28616;44.746;19.678;2023-08-07T08:32:01;2.05;;;0.63;;
42978;SDS011;28616;44.746;19.678;2023-08-07T08:34:27;1.10;;;0.65;;
42978;SDS011;28616;44.746;19.678;2023-08-07T08:36:53;2.75;;;0.93;;
42978;SDS011;28616;44.746;19.678;2023-08-07T08:39:20;3.47;;;0.52;;
42978;SDS011;28616;44.746;19.678;2023-08-07T08:41:49;2.17;;;0.70;;
42978;SDS011;28616;44.746;19.678;2023-08-07T08:44:17;2.65;;;1.25;;
42978;SDS011;28616;44.746;19.678;2023-08-07T08:46:45;3.33;;;0.80;;
42978;SDS011;28616;44.746;19.678;2023-08-07T08:49:13;3.92;;;0.63;;
42978;SDS011;28616;44.746;19.678;2023-08-07T08:51:42;1.95;;;0.70;;
42978;SDS011;28616;44.746;19.678;2023-08-07T08:54:09;1.45;;;0.50;;
42978;SDS011;28616;44.746;19.678;2023-08-07T11:08:04;1.77;;;0.47;;
42978;SDS011;28616;44.746;19.678;2023-08-07T11:10:30;1.13;;;0.60;;
42978;SDS011;28616;44.746;19.678;2023-08-07T11:12:58;2.25;;;0.90;;
42978;SDS011;28616;44.746;19.678;2023-08-07T11:15:24;1.50;;;0.77;;
42978;SDS011;28616;44.746;19.678;2023-08-07T17:44:36;2.20;;;0.68;;
42978;SDS011;28616;44.746;19.678;2023-08-07T17:47:02;1.17;;;0.80;;
42978;SDS011;28616;44.746;19.678;2023-08-07T17:49:27;3.38;;;0.93;;
42978;SDS011;28616;44.746;19.678;2023-08-07T17:51:59;3.90;;;1.40;;
42978;SDS011;28616;44.746;19.678;2023-08-07T17:54:24;5.22;;;1.10;;
42978;SDS011;28616;44.746;19.678;2023-08-07T17:56:50;3.70;;;1.02;;
42978;SDS011;28616;44.746;19.678;2023-08-07T17:59:16;7.32;;;1.20;;
42978;SDS011;28616;44.746;19.678;2023-08-07T18:01:42;5.50;;;2.25;;
42978;SDS011;28616;44.746;19.678;2023-08-07T18:04:07;5.15;;;2.00;;
42978;SDS011;28616;44.746;19.678;2023-08-07T18:06:34;6.00;;;2.33;;
42978;SDS011;28616;44.746;19.678;2023-08-07T18:08:59;7.45;;;2.30;;
42978;SDS011;28616;44.746;19.678;2023-08-07T18:11:26;4.95;;;1.90;;
42978;SDS011;28616;44.746;19.678;2023-08-07T18:13:51;6.90;;;1.63;;
42978;SDS011;28616;44.746;19.678;2023-08-07T18:16:17;4.20;;;1.20;;
42978;SDS011;28616;44.746;19.678;2023-08-07T18:18:43;2.72;;;1.55;;
42978;SDS011;28616;44.746;19.678;2023-08-07T18:21:09;2.72;;;1.20;;
42978;SDS011;28616;44.746;19.678;2023-08-07T18:23:35;1.98;;;1.23;;
42978;SDS011;28616;44.746;19.678;2023-08-07T18:26:01;2.88;;;1.63;;
42978;SDS011;28616;44.746;19.678;2023-08-07T18:28:26;2.28;;;1.30;;
42978;SDS011;28616;44.746;19.678;2023-08-07T18:30:52;4.15;;;1.55;;
42978;SDS011;28616;44.746;19.678;2023-08-07T18:33:18;2.38;;;1.33;;
42978;SDS011;28616;44.746;19.678;2023-08-07T18:35:44;2.35;;;1.40;;
42978;SDS011;28616;44.746;19.678;2023-08-07T18:38:10;4.30;;;1.88;;
42978;SDS011;28616;44.746;19.678;2023-08-07T18:40:35;3.63;;;1.95;;
42978;SDS011;28616;44.746;19.678;2023-08-07T18:43:03;2.65;;;1.70;;
42978;SDS011;28616;44.746;19.678;2023-08-07T18:45:29;2.22;;;1.30;;
42978;SDS011;28616;44.746;19.678;2023-08-07T18:47:55;3.67;;;1.80;;
42978;SDS011;28616;44.746;19.678;2023-08-07T18:50:20;2.95;;;1.42;;
42978;SDS011;28616;44.746;19.678;2023-08-07T18:52:46;3.03;;;1.50;;
42978;SDS011;28616;44.746;19.678;2023-08-07T18:55:12;1.88;;;1.33;;
42978;SDS011;28616;44.746;19.678;2023-08-07T18:57:38;2.90;;;1.33;;
42978;SDS011;28616;44.746;19.678;2023-08-07T19:00:05;3.35;;;1.40;;
42978;SDS011;28616;44.746;19.678;2023-08-07T19:02:33;3.88;;;1.35;;
42978;SDS011;28616;44.746;19.678;2023-08-07T19:04:59;2.63;;;1.58;;
42978;SDS011;28616;44.746;19.678;2023-08-07T19:07:25;3.05;;;1.52;;
42978;SDS011;28616;44.746;19.678;2023-08-07T19:09:51;1.88;;;1.48;;
42978;SDS011;28616;44.746;19.678;2023-08-07T19:12:17;1.77;;;1.33;;
42978;SDS011;28616;44.746;19.678;2023-08-07T19:14:42;2.67;;;1.30;;
42978;SDS011;28616;44.746;19.678;2023-08-07T19:17:08;2.42;;;1.58;;
42978;SDS011;28616;44.746;19.678;2023-08-07T19:19:34;5.05;;;1.60;;
42978;SDS011;28616;44.746;19.678;2023-08-07T19:22:00;1.95;;;1.33;;
42978;SDS011;28616;44.746;19.678;2023-08-07T19:24:27;5.45;;;1.73;;
42978;SDS011;28616;44.746;19.678;2023-08-07T19:26:53;4.72;;;2.00;;
42978;SDS011;28616;44.746;19.678;2023-08-07T19:29:18;2.75;;;1.90;;
42978;SDS011;28616;44.746;19.678;2023-08-07T19:31:44;2.90;;;1.80;;
42978;SDS011;28616;44.746;19.678;2023-08-07T19:34:10;2.85;;;1.83;;
42978;SDS011;28616;44.746;19.678;2023-08-07T19:36:36;2.45;;;1.80;;
42978;SDS011;28616;44.746;19.678;2023-08-07T19:39:03;6.40;;;2.22;;
42978;SDS011;28616;44.746;19.678;2023-08-07T19:41:29;3.33;;;2.10;;
42978;SDS011;28616;44.746;19.678;2023-08-07T19:43:57;4.78;;;2.20;;
42978;SDS011;28616;44.746;19.678;2023-08-07T19:46:23;5.13;;;2.03;;
42978;SDS011;28616;44.746;19.678;2023-08-07T19:48:49;3.22;;;1.80;;
42978;SDS011;28616;44.746;19.678;2023-08-07T19:51:14;4.88;;;2.35;;
42978;SDS011;28616;44.746;19.678;2023-08-07T19:53:42;3.10;;;2.33;;
42978;SDS011;28616;44.746;19.678;2023-08-07T19:56:08;6.75;;;3.00;;
42978;SDS011;28616;44.746;19.678;2023-08-07T19:58:34;3.30;;;2.33;;
42978;SDS011;28616;44.746;19.678;2023-08-07T20:01:00;3.55;;;2.10;;
42978;SDS011;28616;44.746;19.678;2023-08-07T20:03:25;4.00;;;2.53;;
42978;SDS011;28616;44.746;19.678;2023-08-07T20:05:51;4.57;;;2.60;;
42978;SDS011;28616;44.746;19.678;2023-08-07T20:08:17;5.93;;;2.47;;
42978;SDS011;28616;44.746;19.678;2023-08-07T20:10:43;3.35;;;2.50;;
42978;SDS011;28616;44.746;19.678;2023-08-07T20:13:09;4.13;;;2.65;;
42978;SDS011;28616;44.746;19.678;2023-08-07T20:15:34;4.60;;;2.95;;
42978;SDS011;28616;44.746;19.678;2023-08-07T20:18:01;5.38;;;2.42;;
42978;SDS011;28616;44.746;19.678;2023-08-07T20:20:27;3.42;;;2.55;;
42978;SDS011;28616;44.746;19.678;2023-08-07T20:22:53;4.65;;;2.70;;
42978;SDS011;28616;44.746;19.678;2023-08-07T20:25:19;3.72;;;2.80;;
42978;SDS011;28616;44.746;19.678;2023-08-07T20:27:45;4.57;;;2.67;;
42978;SDS011;28616;44.746;19.678;2023-08-07T20:30:10;5.18;;;2.80;;
42978;SDS011;28616;44.746;19.678;2023-08-07T20:32:36;3.83;;;2.65;;
42978;SDS011;28616;44.746;19.678;2023-08-07T20:35:02;4.82;;;2.47;;
42978;SDS011;28616;44.746;19.678;2023-08-07T20:37:30;5.25;;;3.17;;
42978;SDS011;28616;44.746;19.678;2023-08-07T20:39:55;5.35;;;2.83;;
42978;SDS011;28616;44.746;19.678;2023-08-07T20:42:21;3.92;;;2.72;;
42978;SDS011;28616;44.746;19.678;2023-08-07T20:44:47;6.57;;;2.78;;
42978;SDS011;28616;44.746;19.678;2023-08-07T20:47:12;6.00;;;2.92;;
42978;SDS011;28616;44.746;19.678;2023-08-07T20:49:38;4.25;;;2.58;;
42978;SDS011;28616;44.746;19.678;2023-08-07T20:52:04;3.15;;;2.30;;
42978;SDS011;28616;44.746;19.678;2023-08-07T20:54:30;8.80;;;2.55;;
42978;SDS011;28616;44.746;19.678;2023-08-07T20:56:56;5.03;;;2.45;;
42978;SDS011;28616;44.746;19.678;2023-08-07T20:59:22;5.07;;;2.58;;
42978;SDS011;28616;44.746;19.678;2023-08-07T21:01:48;11.63;;;2.60;;
42978;SDS011;28616;44.746;19.678;2023-08-07T21:04:13;8.05;;;2.47;;
42978;SDS011;28616;44.746;19.678;2023-08-07T21:06:40;6.43;;;2.88;;
42978;SDS011;28616;44.746;19.678;2023-08-07T21:09:06;3.17;;;2.33;;
42978;SDS011;28616;44.746;19.678;2023-08-07T21:11:32;5.53;;;2.97;;
42978;SDS011;28616;44.746;19.678;2023-08-07T21:13:58;4.03;;;2.88;;
42978;SDS011;28616;44.746;19.678;2023-08-07T21:16:24;7.93;;;2.78;;
42978;SDS011;28616;44.746;19.678;2023-08-07T21:18:50;5.18;;;2.67;;
42978;SDS011;28616;44.746;19.678;2023-08-07T21:21:16;9.15;;;2.63;;
42978;SDS011;28616;44.746;19.678;2023-08-07T21:23:42;4.72;;;3.00;;
42978;SDS011;28616;44.746;19.678;2023-08-07T21:26:08;4.63;;;2.85;;
42978;SDS011;28616;44.746;19.678;2023-08-07T21:28:34;6.60;;;2.42;;
42978;SDS011;28616;44.746;19.678;2023-08-07T21:31:00;4.05;;;2.58;;
42978;SDS011;28616;44.746;19.678;2023-08-07T21:33:26;6.97;;;2.60;;
42978;SDS011;28616;44.746;19.678;2023-08-07T21:35:52;5.35;;;2.90;;
42978;SDS011;28616;44.746;19.678;2023-08-07T21:38:19;6.22;;;3.40;;
42978;SDS011;28616;44.746;19.678;2023-08-07T21:40:45;5.38;;;2.80;;
42978;SDS011;28616;44.746;19.678;2023-08-07T21:43:11;4.47;;;2.25;;
42978;SDS011;28616;44.746;19.678;2023-08-07T21:45:36;4.63;;;2.50;;
42978;SDS011;28616;44.746;19.678;2023-08-07T21:48:02;7.75;;;3.45;;
42978;SDS011;28616;44.746;19.678;2023-08-07T21:50:28;3.17;;;2.55;;
42978;SDS011;28616;44.746;19.678;2023-08-07T21:52:54;5.15;;;2.38;;
42978;SDS011;28616;44.746;19.678;2023-08-07T21:55:20;3.35;;;2.25;;
42978;SDS011;28616;44.746;19.678;2023-08-07T21:57:46;4.15;;;2.58;;
42978;SDS011;28616;44.746;19.678;2023-08-07T22:00:12;3.22;;;2.00;;
42978;SDS011;28616;44.746;19.678;2023-08-07T22:02:40;3.13;;;2.17;;
42978;SDS011;28616;44.746;19.678;2023-08-07T22:05:08;2.65;;;1.88;;
42978;SDS011;28616;44.746;19.678;2023-08-07T22:07:35;5.43;;;2.17;;
42978;SDS011;28616;44.746;19.678;2023-08-07T22:10:04;5.72;;;2.20;;
42978;SDS011;28616;44.746;19.678;2023-08-07T22:12:32;8.30;;;2.70;;
42978;SDS011;28616;44.746;19.678;2023-08-07T22:14:59;5.45;;;2.03;;
42978;SDS011;28616;44.746;19.678;2023-08-07T22:17:25;3.05;;;2.17;;
42978;SDS011;28616;44.746;19.678;2023-08-07T22:19:51;8.77;;;2.08;;
42978;SDS011;28616;44.746;19.678;2023-08-07T22:22:17;4.85;;;2.00;;
42978;SDS011;28616;44.746;19.678;2023-08-07T22:24:43;4.03;;;2.05;;
42978;SDS011;28616;44.746;19.678;2023-08-07T22:27:10;4.85;;;2.10;;
42978;SDS011;28616;44.746;19.678;2023-08-07T22:29:36;3.25;;;2.40;;
42978;SDS011;28616;44.746;19.678;2023-08-07T22:32:01;9.38;;;2.65;;
42978;SDS011;28616;44.746;19.678;2023-08-07T22:34:28;3.63;;;2.65;;
42978;SDS011;28616;44.746;19.678;2023-08-07T22:36:54;3.95;;;2.45;;
42978;SDS011;28616;44.746;19.678;2023-08-07T22:39:19;5.28;;;2.60;;
42978;SDS011;28616;44.746;19.678;2023-08-07T22:41:45;4.20;;;2.25;;
42978;SDS011;28616;44.746;19.678;2023-08-07T22:44:11;8.05;;;2.67;;
42978;SDS011;28616;44.746;19.678;2023-08-07T22:46:37;3.08;;;2.22;;
42978;SDS011;28616;44.746;19.678;2023-08-07T22:49:02;4.20;;;1.80;;
42978;SDS011;28616;44.746;19.678;2023-08-07T22:51:28;5.25;;;1.90;;
42978;SDS011;28616;44.746;19.678;2023-08-07T22:53:54;6.65;;;2.30;;
42978;SDS011;28616;44.746;19.678;2023-08-07T22:56:19;3.92;;;1.83;;
42978;SDS011;28616;44.746;19.678;2023-08-07T22:58:45;3.53;;;1.85;;
42978;SDS011;28616;44.746;19.678;2023-08-07T23:01:13;2.38;;;1.77;;
42978;SDS011;28616;44.746;19.678;2023-08-07T23:03:38;4.85;;;2.08;;
42978;SDS011;28616;44.746;19.678;2023-08-07T23:06:07;2.80;;;1.88;;
42978;SDS011;28616;44.746;19.678;2023-08-07T23:08:34;4.88;;;2.42;;
42978;SDS011;28616;44.746;19.678;2023-08-07T23:11:00;4.68;;;2.30;;
42978;SDS011;28616;44.746;19.678;2023-08-07T23:13:26;4.50;;;2.63;;
42978;SDS011;28616;44.746;19.678;2023-08-07T23:15:52;8.32;;;2.85;;
42978;SDS011;28616;44.746;19.678;2023-08-07T23:18:17;2.95;;;2.25;;